Time;durP1;ratioP1;P1;durP2;ratioP2;P2;SDS_P1;SDS_P2;PMS_P1;PMS_P2;Temp;Humidity;BMP_temperature;BMP_pressure;BME280_temperature;BME280_humidity;BME280_pressure;Samples;Min_cycle;Max_cycle;Signal;HPM_P1;HPM_P2
2023/11/27 00:09:03;;;;;;;25.50;17.88;;;6.50;99.90;;;;;;20520053;28;20050;-84
2023/11/27 00:19:03;;;;;;;27.20;17.65;;;6.50;99.90;;;;;;20548142;28;20218;-86
2023/11/27 00:29:04;;;;;;;28.13;15.73;;;6.50;99.90;;;;;;20518803;28;20390;-85
2023/11/27 00:39:11;;;;;;;26.05;16.05;;;6.50;99.90;;;;;;20487137;28;20250;-85
2023/11/27 00:49:18;;;;;;;27.13;16.63;;;6.40;99.90;;;;;;20490135;28;20433;-85
2023/11/27 00:59:19;;;;;;;30.52;18.90;;;6.30;99.90;;;;;;20536728;28;20378;-85
2023/11/27 01:09:24;;;;;;;31.67;18.08;;;6.40;99.90;;;;;;20532871;28;20552;-84
2023/11/27 01:19:27;;;;;;;28.60;17.02;;;6.30;99.90;;;;;;20530202;28;20031;-85
2023/11/27 01:29:35;;;;;;;26.65;15.43;;;6.30;99.90;;;;;;20555895;28;20047;-85
2023/11/27 01:39:36;;;;;;;27.58;14.35;;;6.20;99.90;;;;;;20488196;28;20062;-85
2023/11/27 01:49:40;;;;;;;23.02;13.35;;;6.10;99.90;;;;;;20502135;28;20059;-82
2023/11/27 01:59:42;;;;;;;20.08;11.85;;;6.00;99.90;;;;;;20457726;28;20105;-82
2023/11/27 02:09:43;;;;;;;20.33;12.50;;;6.00;99.90;;;;;;20477389;28;20046;-81
2023/11/27 02:19:44;;;;;;;19.42;11.52;;;5.90;99.90;;;;;;20475108;28;20034;-82
2023/11/27 02:29:45;;;;;;;20.17;11.43;;;5.90;99.90;;;;;;20471908;28;20051;-82
2023/11/27 02:39:51;;;;;;;15.88;10.65;;;5.90;99.90;;;;;;20514589;28;20074;-81
2023/11/27 02:49:55;;;;;;;18.50;11.20;;;5.90;99.90;;;;;;20539121;28;20101;-81
2023/11/27 02:59:58;;;;;;;15.93;10.02;;;5.80;99.90;;;;;;20539849;28;20488;-82
2023/11/27 03:09:59;;;;;;;14.13;8.98;;;5.80;99.90;;;;;;20560228;28;20045;-83
2023/11/27 03:20:00;;;;;;;12.80;8.43;;;5.80;99.90;;;;;;20543820;28;20473;-83
2023/11/27 03:30:06;;;;;;;15.32;10.23;;;5.80;99.90;;;;;;20538169;28;20039;-83
2023/11/27 03:40:10;;;;;;;15.27;10.10;;;5.80;99.90;;;;;;20536399;28;20051;-84
2023/11/27 03:50:16;;;;;;;16.90;10.73;;;5.80;99.90;;;;;;20501667;28;20430;-83
2023/11/27 04:00:26;;;;;;;16.03;10.23;;;5.70;99.90;;;;;;20487942;28;20031;-85
2023/11/27 04:10:26;;;;;;;17.73;11.38;;;5.80;99.90;;;;;;20507186;28;20055;-85
2023/11/27 04:20:27;;;;;;;17.30;10.15;;;5.70;99.90;;;;;;20501482;28;20043;-83
2023/11/27 04:30:28;;;;;;;17.33;9.97;;;5.70;99.90;;;;;;20455052;28;20469;-82
2023/11/27 04:40:29;;;;;;;17.15;9.25;;;5.70;99.90;;;;;;20459130;28;20478;-83
2023/11/27 04:50:38;;;;;;;14.05;8.40;;;5.60;99.90;;;;;;20461714;28;20572;-83
2023/11/27 05:00:47;;;;;;;12.85;8.25;;;5.60;99.90;;;;;;20492455;28;20481;-83
2023/11/27 05:10:51;;;;;;;13.98;7.97;;;5.50;99.90;;;;;;20446417;28;20047;-82
2023/11/27 05:20:52;;;;;;;11.48;8.65;;;5.40;99.90;;;;;;20462413;28;20034;-82
2023/11/27 05:30:55;;;;;;;9.98;7.20;;;5.40;99.90;;;;;;20549633;28;20035;-80
2023/11/27 05:41:17;;;;;;;9.82;5.90;;;5.40;99.90;;;;;;20593125;28;20055;-82
2023/11/27 05:51:26;;;;;;;8.20;4.80;;;5.40;99.90;;;;;;20586897;28;20047;-80
2023/11/27 06:01:33;;;;;;;6.55;4.45;;;5.40;99.90;;;;;;20584500;28;20061;-86
2023/11/27 06:11:46;;;;;;;;;;;5.30;99.90;;;;;;20435886;28;20071;-86
2023/11/27 06:21:52;;;;;;;7.47;4.10;;;5.30;99.90;;;;;;20439043;28;20359;-87
2023/11/27 06:31:53;;;;;;;6.90;4.45;;;5.30;99.90;;;;;;20468455;28;20031;-85
2023/11/27 06:41:57;;;;;;;8.65;5.22;;;5.20;99.90;;;;;;20460958;28;20127;-88
2023/11/27 06:52:04;;;;;;;9.93;6.18;;;5.20;99.90;;;;;;20462354;28;20035;-85
2023/11/27 07:02:08;;;;;;;8.07;5.97;;;5.20;99.90;;;;;;20475902;28;20515;-85
2023/11/27 07:12:09;;;;;;;9.38;6.50;;;5.20;99.90;;;;;;20483365;28;20378;-85
2023/11/27 07:22:12;;;;;;;9.50;6.75;;;5.20;99.90;;;;;;20467661;28;20436;-83
2023/11/27 07:32:26;;;;;;;9.98;7.03;;;5.20;99.90;;;;;;20487212;28;20042;-86
2023/11/27 07:42:26;;;;;;;12.52;7.55;;;5.30;99.90;;;;;;20506077;28;20082;-82
2023/11/27 07:52:28;;;;;;;13.20;7.65;;;5.30;99.90;;;;;;20482765;28;20074;-83
2023/11/27 08:02:38;;;;;;;19.92;11.88;;;5.20;99.90;;;;;;20504463;28;20047;-84
2023/11/27 08:12:39;;;;;;;11.80;8.80;;;5.30;99.90;;;;;;20220938;28;228046;-84
2023/11/27 08:22:43;;;;;;;12.05;8.20;;;5.30;99.90;;;;;;20477667;28;20043;-84
2023/11/27 08:32:44;;;;;;;10.63;7.22;;;5.30;99.90;;;;;;20481634;28;20031;-84
2023/11/27 08:42:44;;;;;;;12.43;8.20;;;5.20;99.90;;;;;;20496937;28;20070;-84
2023/11/27 08:52:56;;;;;;;11.35;7.75;;;5.30;99.90;;;;;;20513542;28;20093;-85
2023/11/27 09:03:00;;;;;;;10.82;7.32;;;5.30;99.90;;;;;;20462085;28;20560;-82
2023/11/27 09:13:12;;;;;;;10.45;7.57;;;5.40;99.90;;;;;;20482396;28;20043;-83
2023/11/27 09:23:12;;;;;;;10.40;7.65;;;5.40;99.90;;;;;;20455803;28;20106;-82
2023/11/27 09:33:22;;;;;;;12.47;8.37;;;5.40;99.90;;;;;;20469829;28;20090;-84
2023/11/27 09:43:27;;;;;;;11.35;7.68;;;5.50;99.90;;;;;;20484982;28;20458;-83
2023/11/27 09:53:35;;;;;;;11.43;7.88;;;5.40;99.90;;;;;;20490625;28;20042;-84
2023/11/27 10:03:45;;;;;;;11.68;7.70;;;5.50;99.90;;;;;;20475881;28;20051;-83
2023/11/27 10:13:45;;;;;;;12.80;8.98;;;5.60;99.90;;;;;;20462884;28;20122;-82
2023/11/27 10:23:49;;;;;;;13.50;9.13;;;5.60;99.90;;;;;;20457205;28;20039;-84
2023/11/27 10:33:51;;;;;;;12.48;8.60;;;5.60;99.90;;;;;;20446986;28;20047;-83
2023/11/27 10:43:56;;;;;;;11.70;8.13;;;5.60;99.90;;;;;;20426343;28;20098;-81
2023/11/27 10:54:01;;;;;;;10.02;7.70;;;5.60;99.90;;;;;;20434567;28;20095;-81
2023/11/27 11:04:17;;;;;;;11.52;8.55;;;5.60;99.90;;;;;;20448205;28;20107;-82
2023/11/27 11:14:19;;;;;;;10.70;7.78;;;5.70;99.90;;;;;;20450154;28;20062;-84
2023/11/27 11:24:37;;;;;;;13.45;8.63;;;5.80;99.90;;;;;;20433102;28;20534;-87
2023/11/27 11:34:42;;;;;;;10.27;7.55;;;5.80;99.90;;;;;;20462699;28;20038;-83
2023/11/27 11:45:27;;;;;;;11.35;7.35;;;5.80;99.90;;;;;;20436200;28;20532;-83
2023/11/27 11:55:33;;;;;;;11.23;7.13;;;5.90;99.90;;;;;;20443969;28;20318;-83
2023/11/27 12:05:34;;;;;;;10.90;6.90;;;6.00;99.90;;;;;;20482295;28;20428;-82
2023/11/27 12:15:34;;;;;;;8.83;6.03;;;6.10;99.90;;;;;;20491311;28;20409;-83
2023/11/27 12:25:35;;;;;;;7.83;5.63;;;6.10;99.90;;;;;;20401654;28;20534;-79
2023/11/27 12:35:37;;;;;;;8.35;5.13;;;6.20;99.90;;;;;;20454192;28;20455;-78
2023/11/27 12:45:38;;;;;;;9.20;5.60;;;6.30;99.90;;;;;;20449377;28;20077;-80
2023/11/27 12:55:49;;;;;;;9.63;5.85;;;6.20;99.90;;;;;;20430902;28;20052;-79
2023/11/27 13:05:53;;;;;;;10.07;5.22;;;6.20;99.90;;;;;;20432540;28;20118;-79
2023/11/27 13:15:57;;;;;;;8.50;5.82;;;6.30;99.90;;;;;;20414967;28;20056;-78
2023/11/27 13:26:09;;;;;;;7.95;5.30;;;6.30;99.90;;;;;;20479323;28;20079;-78
2023/11/27 13:36:50;;;;;;;6.82;4.53;;;6.20;99.90;;;;;;20500573;28;20045;-82
2023/11/27 13:46:40;;;;;;;8.48;5.60;;;6.20;99.90;;;;;;20432591;28;20526;-83
2023/11/27 13:56:40;;;;;;;9.23;6.15;;;6.20;99.90;;;;;;20437433;28;20114;-83
2023/11/27 14:06:45;;;;;;;11.15;6.13;;;6.20;99.90;;;;;;20481957;28;20368;-83
2023/11/27 14:16:46;;;;;;;9.43;6.38;;;6.20;99.90;;;;;;20433750;28;20600;-84
2023/11/27 14:36:55;;;;;;;10.73;6.88;;;6.20;99.90;;;;;;20435047;28;20497;-82
2023/11/27 14:46:56;;;;;;;10.07;6.18;;;6.20;99.90;;;;;;20377819;28;20544;-83
2023/11/27 14:57:06;;;;;;;11.18;7.45;;;6.20;99.90;;;;;;20407665;28;20500;-84
2023/11/27 15:07:09;;;;;;;13.05;8.27;;;6.20;99.90;;;;;;20384794;28;20094;-81
2023/11/27 15:17:11;;;;;;;12.50;8.17;;;6.10;99.90;;;;;;20468584;28;20032;-78
2023/11/27 15:27:12;;;;;;;12.00;8.10;;;6.10;99.90;;;;;;20509264;28;20500;-81
2023/11/27 15:37:14;;;;;;;13.65;8.85;;;6.00;99.90;;;;;;20503258;28;20055;-79
2023/11/27 15:47:16;;;;;;;12.60;7.82;;;6.00;99.90;;;;;;20526960;28;20058;-81
2023/11/27 15:57:18;;;;;;;10.90;6.55;;;5.90;99.90;;;;;;20435453;28;20053;-79
2023/11/27 16:07:20;;;;;;;11.68;6.45;;;5.80;99.90;;;;;;20488657;28;20047;-77
2023/11/27 16:17:22;;;;;;;10.48;6.63;;;5.70;99.90;;;;;;20438332;28;20035;-81
2023/11/27 16:27:22;;;;;;;11.43;6.72;;;5.60;99.90;;;;;;20435154;28;20071;-78
2023/11/27 16:37:31;;;;;;;12.90;7.43;;;5.50;99.90;;;;;;20424072;28;20281;-79
2023/11/27 16:47:32;;;;;;;13.80;7.95;;;5.40;99.90;;;;;;20421052;28;20047;-77
2023/11/27 16:57:32;;;;;;;11.85;7.18;;;5.00;99.90;;;;;;20432979;28;20059;-79
2023/11/27 17:07:35;;;;;;;13.03;7.47;;;4.90;99.90;;;;;;20425936;28;20118;-79
2023/11/27 17:17:36;;;;;;;12.48;7.80;;;4.80;99.90;;;;;;20397082;28;21281;-79
2023/11/27 17:27:40;;;;;;;12.10;6.88;;;4.60;99.90;;;;;;20432060;28;20472;-81
2023/11/27 17:37:43;;;;;;;12.13;6.55;;;4.40;99.90;;;;;;20412616;28;20051;-80
2023/11/27 17:47:47;;;;;;;11.43;6.60;;;4.40;99.90;;;;;;20426577;28;20051;-84
2023/11/27 17:58:15;;;;;;;9.82;5.80;;;4.20;99.90;;;;;;20394411;28;20138;-86
2023/11/27 18:08:26;;;;;;;9.50;5.30;;;4.10;99.90;;;;;;20433766;28;20055;-86
2023/11/27 18:18:30;;;;;;;9.45;5.40;;;4.00;99.90;;;;;;20402883;28;20047;-84
2023/11/27 18:28:33;;;;;;;9.93;5.63;;;3.90;99.90;;;;;;20429224;28;20039;-84
2023/11/27 18:38:33;;;;;;;10.68;5.45;;;3.70;99.90;;;;;;20475019;28;20035;-86
2023/11/27 18:48:41;;;;;;;11.17;6.03;;;3.70;99.90;;;;;;20467035;28;20046;-86
2023/11/27 18:59:17;;;;;;;11.40;6.57;;;3.60;99.90;;;;;;20436929;28;20459;-85
2023/11/27 19:09:16;;;;;;;12.95;7.53;;;3.50;99.90;;;;;;20446058;28;20066;-84
2023/11/27 19:19:25;;;;;;;13.57;7.88;;;3.50;99.90;;;;;;20454101;28;20047;-83
2023/11/27 19:29:32;;;;;;;14.68;7.75;;;3.40;99.90;;;;;;20526649;28;20065;-84
2023/11/27 19:39:36;;;;;;;16.00;8.30;;;3.40;99.90;;;;;;20452712;28;20517;-83
2023/11/27 19:49:36;;;;;;;17.70;9.23;;;3.40;99.90;;;;;;20481615;28;20133;-85
2023/11/27 19:59:40;;;;;;;21.50;10.95;;;3.40;99.90;;;;;;20488569;28;20484;-84
2023/11/27 20:09:40;;;;;;;22.95;10.73;;;3.50;99.90;;;;;;20446591;28;20044;-84
2023/11/27 20:19:52;;;;;;;23.70;11.45;;;3.50;99.90;;;;;;20464624;28;20042;-84
2023/11/27 20:29:53;;;;;;;20.17;10.17;;;3.50;99.90;;;;;;20451951;28;20047;-84
2023/11/27 20:39:54;;;;;;;17.45;8.70;;;3.60;99.90;;;;;;20435700;28;20043;-82
2023/11/27 20:49:55;;;;;;;18.40;9.35;;;3.60;99.90;;;;;;20361426;28;20047;-83
2023/11/27 20:59:59;;;;;;;18.38;9.32;;;3.60;99.90;;;;;;20412639;28;20039;-82
2023/11/27 21:10:00;;;;;;;16.05;9.07;;;3.60;99.90;;;;;;20374276;28;20117;-83
2023/11/27 21:20:12;;;;;;;15.18;8.48;;;3.80;99.90;;;;;;20381509;28;20035;-82
2023/11/27 21:30:16;;;;;;;15.23;8.23;;;3.80;99.90;;;;;;20427725;28;20073;-83
2023/11/27 21:40:29;;;;;;;15.40;8.45;;;3.80;99.90;;;;;;20347968;28;1143238;-82
2023/11/27 21:50:30;;;;;;;12.63;7.60;;;3.90;99.90;;;;;;20446972;28;20035;-81
2023/11/27 22:00:31;;;;;;;13.70;7.50;;;3.90;99.90;;;;;;20473862;28;20070;-84
2023/11/27 22:10:32;;;;;;;11.95;7.60;;;3.90;99.90;;;;;;20473118;28;20050;-83
2023/11/27 22:20:44;;;;;;;12.52;7.18;;;4.00;99.90;;;;;;20453964;28;20067;-83
2023/11/27 22:30:45;;;;;;;11.43;6.93;;;3.90;99.90;;;;;;20510731;28;20542;-82
2023/11/27 22:40:48;;;;;;;9.15;5.93;;;4.00;99.90;;;;;;20446482;28;20621;-82
2023/11/27 22:50:51;;;;;;;8.80;5.95;;;4.00;99.90;;;;;;20507099;28;20039;-83
2023/11/27 23:00:52;;;;;;;7.53;4.93;;;4.00;99.90;;;;;;20450189;28;20504;-84
2023/11/27 23:10:53;;;;;;;6.90;4.25;;;4.00;99.90;;;;;;20443117;28;20537;-84
2023/11/27 23:20:54;;;;;;;7.57;4.65;;;3.90;99.90;;;;;;20477407;28;20564;-85
2023/11/27 23:30:55;;;;;;;9.75;6.50;;;3.90;99.90;;;;;;20477353;28;20055;-84
2023/11/27 23:40:56;;;;;;;12.00;8.02;;;3.90;99.90;;;;;;20457377;28;20103;-85
2023/11/27 23:50:56;;;;;;;14.20;8.43;;;3.80;97.30;;;;;;20443085;28;20051;-84
